createdAt,value
2023-05-14T00:01:10.835Z,8.73
2023-05-14T00:03:38.872Z,9.73
2023-05-14T00:06:05.782Z,10.60
2023-05-14T00:08:32.636Z,10.07
2023-05-14T00:10:59.507Z,9.33
2023-05-14T00:13:26.640Z,11.10
2023-05-14T00:15:53.394Z,10.03
2023-05-14T00:18:20.379Z,11.27
2023-05-14T00:20:47.211Z,9.03
2023-05-14T00:23:14.019Z,10.13
2023-05-14T00:25:40.885Z,10.93
2023-05-14T00:28:07.701Z,10.00
2023-05-14T00:30:34.960Z,11.17
2023-05-14T00:33:01.891Z,9.10
2023-05-14T00:35:28.784Z,10.30
2023-05-14T00:37:55.636Z,10.87
2023-05-14T00:40:26.718Z,9.63
2023-05-14T00:42:54.016Z,12.50
2023-05-14T00:45:21.191Z,9.80
2023-05-14T00:47:51.363Z,11.87
2023-05-14T00:50:18.889Z,11.47
2023-05-14T00:52:46.019Z,10.50
2023-05-14T00:55:16.452Z,10.70
2023-05-14T00:57:43.869Z,10.17
2023-05-14T01:00:11.260Z,10.97
2023-05-14T01:02:38.274Z,9.63
2023-05-14T01:05:05.956Z,10.67
2023-05-14T01:07:47.954Z,11.23
2023-05-14T01:10:25.379Z,10.67
2023-05-14T01:13:21.202Z,11.50
2023-05-14T01:15:49.243Z,10.97
2023-05-14T01:18:19.465Z,10.37
2023-05-14T01:20:46.531Z,10.23
2023-05-14T01:23:13.332Z,9.83
2023-05-14T01:25:40.168Z,11.47
2023-05-14T01:28:13.825Z,9.37
2023-05-14T01:30:46.170Z,12.97
2023-05-14T01:33:16.075Z,12.97
2023-05-14T01:35:43.313Z,9.67
2023-05-14T01:38:13.634Z,9.67
2023-05-14T01:40:41.779Z,9.27
2023-05-14T01:43:08.876Z,10.27
2023-05-14T01:45:37.240Z,9.60
2023-05-14T01:48:05.720Z,11.60
2023-05-14T01:50:32.596Z,9.73
2023-05-14T01:52:59.420Z,11.70
2023-05-14T01:55:27.500Z,11.43
2023-05-14T01:57:54.739Z,11.80
2023-05-14T02:00:24.525Z,11.77
2023-05-14T02:02:51.790Z,10.97
2023-05-14T02:05:18.898Z,12.37
2023-05-14T02:07:46.345Z,12.93
2023-05-14T02:10:13.614Z,12.23
2023-05-14T02:12:40.699Z,13.53
2023-05-14T02:15:09.029Z,14.80
2023-05-14T02:17:36.375Z,11.57
2023-05-14T02:20:04.051Z,12.23
2023-05-14T02:22:31.408Z,10.57
2023-05-14T02:24:58.217Z,11.20
2023-05-14T02:27:24.946Z,11.10
2023-05-14T02:29:51.737Z,10.17
2023-05-14T02:32:18.644Z,9.80
2023-05-14T02:34:45.482Z,10.93
2023-05-14T02:37:12.337Z,11.17
2023-05-14T02:39:39.122Z,11.40
2023-05-14T02:42:07.054Z,11.67
2023-05-14T02:44:33.998Z,12.87
2023-05-14T02:47:00.858Z,11.60
2023-05-14T02:49:27.720Z,13.33
2023-05-14T02:51:54.580Z,12.30
2023-05-14T02:54:21.370Z,12.03
2023-05-14T02:56:48.333Z,11.83
2023-05-14T02:59:15.291Z,12.80
2023-05-14T03:01:42.618Z,12.43
2023-05-14T03:04:10.055Z,12.70
2023-05-14T03:06:36.901Z,14.10
2023-05-14T03:09:03.841Z,12.73
2023-05-14T03:11:30.780Z,15.33
2023-05-14T03:13:57.580Z,15.40
2023-05-14T03:16:24.506Z,15.40
2023-05-14T03:18:51.440Z,13.23
2023-05-14T03:21:18.530Z,14.40
2023-05-14T03:23:45.480Z,13.87
2023-05-14T03:26:12.535Z,16.23
2023-05-14T03:28:40.031Z,14.20
2023-05-14T03:31:06.869Z,13.73
2023-05-14T03:33:33.843Z,17.13
2023-05-14T03:36:00.612Z,16.47
2023-05-14T03:38:27.434Z,14.77
2023-05-14T03:40:54.340Z,14.20
2023-05-14T03:43:21.190Z,13.83
2023-05-14T03:45:52.416Z,13.20
2023-05-14T03:48:20.206Z,14.47
2023-05-14T03:50:47.264Z,14.70
2023-05-14T03:53:14.175Z,17.23
2023-05-14T03:55:40.988Z,13.50
2023-05-14T03:58:14.020Z,16.50
2023-05-14T04:00:42.096Z,15.30
2023-05-14T04:03:11.071Z,13.90
2023-05-14T04:05:38.046Z,15.00
2023-05-14T04:08:04.969Z,12.63
2023-05-14T04:10:32.198Z,13.13
2023-05-14T04:13:00.102Z,13.03
2023-05-14T04:15:31.318Z,13.93
2023-05-14T04:17:58.305Z,14.70
2023-05-14T04:20:25.838Z,13.23
2023-05-14T04:22:53.762Z,12.80
2023-05-14T04:25:20.712Z,14.30
2023-05-14T04:27:47.522Z,14.30
2023-05-14T04:30:14.470Z,14.67
2023-05-14T04:32:41.299Z,14.50
2023-05-14T04:35:10.268Z,13.03
2023-05-14T04:37:37.175Z,13.37
2023-05-14T04:40:05.801Z,13.30
2023-05-14T04:42:32.562Z,15.20
2023-05-14T04:44:59.449Z,16.97
2023-05-14T04:47:26.648Z,14.40
2023-05-14T04:49:53.507Z,13.53
2023-05-14T04:52:20.401Z,12.97
2023-05-14T04:54:47.233Z,16.40
2023-05-14T04:57:14.156Z,15.73
2023-05-14T04:59:41.029Z,15.27
2023-05-14T05:02:07.846Z,14.03
2023-05-14T05:04:34.821Z,16.87
2023-05-14T05:07:01.605Z,13.57
2023-05-14T05:09:28.429Z,14.20
2023-05-14T05:11:55.280Z,14.23
2023-05-14T05:14:22.119Z,13.27
2023-05-14T05:16:48.991Z,11.93
2023-05-14T05:19:15.850Z,14.23
2023-05-14T05:21:42.851Z,15.20
2023-05-14T05:24:09.761Z,14.20
2023-05-14T05:26:36.980Z,11.77
2023-05-14T05:29:04.507Z,12.57
2023-05-14T05:31:31.948Z,14.27
2023-05-14T05:34:03.768Z,13.13
2023-05-14T05:36:30.993Z,11.93
2023-05-14T05:38:57.959Z,11.73
2023-05-14T05:41:24.886Z,14.70
2023-05-14T05:43:51.712Z,12.77
2023-05-14T05:46:19.223Z,12.27
2023-05-14T05:48:46.126Z,12.53
2023-05-14T05:51:12.894Z,13.33
2023-05-14T05:53:39.680Z,12.10
2023-05-14T05:56:06.907Z,11.53
2023-05-14T05:58:33.851Z,13.17
2023-05-14T06:01:01.347Z,11.10
2023-05-14T06:03:28.355Z,11.40
2023-05-14T06:05:55.274Z,15.13
2023-05-14T06:08:22.128Z,11.30
2023-05-14T06:10:49.006Z,12.80
2023-05-14T06:13:15.768Z,11.57
2023-05-14T06:15:42.625Z,11.43
2023-05-14T06:18:09.655Z,12.93
2023-05-14T06:20:36.571Z,12.77
2023-05-14T06:23:03.446Z,14.23
2023-05-14T06:25:30.467Z,11.90
2023-05-14T06:27:57.281Z,13.80
2023-05-14T06:30:24.284Z,11.93
2023-05-14T06:32:51.920Z,13.30
2023-05-14T06:35:19.237Z,12.23
2023-05-14T06:37:46.049Z,13.87
2023-05-14T06:40:15.650Z,14.00
2023-05-14T06:42:42.583Z,14.17
2023-05-14T06:45:09.852Z,13.13
2023-05-14T06:47:36.721Z,11.17
2023-05-14T06:50:03.737Z,13.50
2023-05-14T06:52:30.647Z,10.83
2023-05-14T06:54:57.454Z,12.23
2023-05-14T06:57:24.469Z,11.77
2023-05-14T06:59:51.260Z,12.77
2023-05-14T07:02:18.047Z,10.77
2023-05-14T07:04:44.986Z,11.60
2023-05-14T07:07:15.327Z,10.50
2023-05-14T07:09:42.755Z,12.97
2023-05-14T07:12:09.688Z,12.17
2023-05-14T07:14:36.519Z,12.13
2023-05-14T07:17:03.450Z,11.17
2023-05-14T07:19:30.400Z,11.90
2023-05-14T07:21:58.133Z,11.30
2023-05-14T07:24:24.951Z,11.77
2023-05-14T07:26:51.882Z,12.50
2023-05-14T07:29:18.696Z,11.73
2023-05-14T07:31:45.685Z,12.13
2023-05-14T07:34:12.866Z,11.77
2023-05-14T07:36:39.880Z,11.70
2023-05-14T07:39:06.685Z,11.43
2023-05-14T07:41:33.574Z,10.50
2023-05-14T07:44:00.576Z,10.47
2023-05-14T07:46:27.421Z,11.20
2023-05-14T07:48:54.244Z,11.67
2023-05-14T07:51:21.088Z,10.20
2023-05-14T07:53:47.925Z,10.07
2023-05-14T07:56:14.775Z,10.30
2023-05-14T07:58:41.659Z,10.40
2023-05-14T08:01:09.237Z,9.87
2023-05-14T08:03:36.238Z,9.60
2023-05-14T08:06:03.942Z,10.87
2023-05-14T08:08:30.839Z,9.30
2023-05-14T08:10:57.669Z,10.20
2023-05-14T08:13:24.547Z,8.77
2023-05-14T08:15:51.639Z,9.60
2023-05-14T08:18:18.423Z,8.90
2023-05-14T08:20:45.228Z,9.53
2023-05-14T08:23:12.143Z,8.17
2023-05-14T08:25:39.034Z,7.63
2023-05-14T08:28:06.200Z,7.37
2023-05-14T08:30:33.058Z,8.27
2023-05-14T08:33:00.037Z,7.67
2023-05-14T08:35:27.006Z,10.13
2023-05-14T08:37:53.943Z,7.87
2023-05-14T08:40:21.422Z,8.30
2023-05-14T08:42:48.829Z,9.40
2023-05-14T08:45:19.701Z,8.00
2023-05-14T08:47:51.509Z,7.70
2023-05-14T08:50:22.774Z,7.47
2023-05-14T08:52:50.748Z,8.93
2023-05-14T08:55:17.671Z,7.63
2023-05-14T08:57:44.544Z,7.57
2023-05-14T09:00:12.155Z,8.07
2023-05-14T09:02:41.074Z,10.17
2023-05-14T09:05:12.503Z,9.17
2023-05-14T09:07:39.624Z,7.93
2023-05-14T09:10:08.994Z,8.50
2023-05-14T09:12:35.863Z,7.50
2023-05-14T09:15:02.743Z,9.20
2023-05-14T09:17:29.616Z,8.07
2023-05-14T09:19:56.554Z,8.77
2023-05-14T09:22:23.419Z,7.50
2023-05-14T09:25:03.633Z,8.53
2023-05-14T09:27:31.965Z,8.77
2023-05-14T09:30:09.389Z,8.00
2023-05-14T09:32:40.737Z,9.17
2023-05-14T09:35:18.833Z,8.87
2023-05-14T09:37:50.662Z,8.60
2023-05-14T09:40:20.172Z,8.37
2023-05-14T09:42:50.899Z,7.80
2023-05-14T09:45:18.009Z,8.87
2023-05-14T09:47:45.355Z,8.67
2023-05-14T09:50:12.590Z,8.60
2023-05-14T09:52:39.956Z,9.03
2023-05-14T09:55:08.005Z,8.57
2023-05-14T09:57:35.429Z,9.33
2023-05-14T10:00:02.555Z,7.73
2023-05-14T10:02:41.190Z,8.80
2023-05-14T10:05:08.434Z,11.50
2023-05-14T10:07:46.591Z,10.23
2023-05-14T10:10:19.090Z,7.23
2023-05-14T10:12:52.215Z,7.77
2023-05-14T10:15:37.691Z,7.00
2023-05-14T10:23:20.715Z,9.23
2023-05-14T10:26:28.720Z,6.93
2023-05-14T10:28:56.252Z,8.10
2023-05-14T10:31:24.280Z,8.17
2023-05-14T10:33:51.539Z,7.23
2023-05-14T10:36:22.206Z,8.50
2023-05-14T10:38:57.062Z,7.00
2023-05-14T10:41:24.094Z,7.30
2023-05-14T10:43:51.153Z,7.63
2023-05-14T10:46:18.301Z,7.50
2023-05-14T10:48:45.631Z,7.40
2023-05-14T10:51:12.897Z,6.90
2023-05-14T10:53:42.270Z,6.77
2023-05-14T10:56:11.638Z,8.77
2023-05-14T10:58:43.681Z,6.90
2023-05-14T11:01:13.189Z,7.13
2023-05-14T11:03:43.202Z,8.30
2023-05-14T11:06:13.359Z,6.70
2023-05-14T11:08:41.692Z,6.83
2023-05-14T11:11:09.733Z,6.47
2023-05-14T11:13:36.625Z,6.77
2023-05-14T11:16:15.053Z,5.57
2023-05-14T11:18:54.920Z,6.70
2023-05-14T11:21:21.807Z,6.67
2023-05-14T11:23:48.809Z,5.67
2023-05-14T11:26:15.733Z,5.53
2023-05-14T11:28:44.214Z,7.40
2023-05-14T11:31:11.209Z,7.47
2023-05-14T11:33:38.094Z,6.67
2023-05-14T11:36:05.343Z,6.80
2023-05-14T11:38:32.201Z,7.10
2023-05-14T11:40:59.628Z,7.00
2023-05-14T11:43:34.526Z,6.97
2023-05-14T11:46:18.738Z,7.60
2023-05-14T11:48:45.971Z,6.80
2023-05-14T11:51:23.351Z,7.13
2023-05-14T11:53:50.168Z,7.03
2023-05-14T11:56:26.311Z,6.37
2023-05-14T11:58:58.150Z,7.57
2023-05-14T12:01:25.158Z,6.87
2023-05-14T12:03:52.130Z,7.50
2023-05-14T12:06:19.358Z,6.70
2023-05-14T12:08:49.339Z,7.13
2023-05-14T12:11:21.336Z,7.80
2023-05-14T12:13:48.164Z,7.07
2023-05-14T12:16:15.020Z,6.30
2023-05-14T12:18:43.037Z,6.87
2023-05-14T12:21:11.933Z,7.50
2023-05-14T12:23:39.682Z,6.73
2023-05-14T12:26:08.690Z,6.20
2023-05-14T12:28:38.925Z,6.80
2023-05-14T12:31:05.928Z,6.70
2023-05-14T12:33:32.794Z,6.40
2023-05-14T12:36:07.356Z,6.27
2023-05-14T12:38:41.621Z,6.27
2023-05-14T12:41:08.456Z,6.13
2023-05-14T12:43:35.238Z,6.67
2023-05-14T12:46:02.118Z,7.07
2023-05-14T12:48:28.947Z,6.53
2023-05-14T12:50:55.706Z,7.43
2023-05-14T12:53:22.564Z,6.10
2023-05-14T12:55:49.692Z,6.63
2023-05-14T12:58:16.551Z,6.00
2023-05-14T13:00:43.412Z,6.30
2023-05-14T13:03:10.274Z,7.03
2023-05-14T13:05:37.636Z,6.40
2023-05-14T13:08:04.498Z,6.30
2023-05-14T13:10:31.325Z,9.33
2023-05-14T13:12:58.233Z,6.47
2023-05-14T13:15:25.387Z,7.37
2023-05-14T13:17:52.546Z,7.17
2023-05-14T13:20:19.867Z,6.07
2023-05-14T13:22:46.687Z,7.27
2023-05-14T13:25:13.516Z,7.00
2023-05-14T13:27:40.373Z,6.33
2023-05-14T13:30:07.713Z,6.23
2023-05-14T13:32:34.622Z,5.97
2023-05-14T13:35:01.473Z,7.07
2023-05-14T13:37:28.680Z,6.10
2023-05-14T13:39:55.567Z,7.20
2023-05-14T13:42:23.632Z,6.83
2023-05-14T13:44:50.824Z,6.70
2023-05-14T13:47:17.735Z,10.50
2023-05-14T13:49:44.540Z,6.57
2023-05-14T13:52:11.417Z,7.40
2023-05-14T13:54:38.296Z,6.03
2023-05-14T13:57:05.608Z,5.33
2023-05-14T13:59:32.466Z,6.10
2023-05-14T14:01:59.432Z,6.43
2023-05-14T14:04:28.993Z,5.70
2023-05-14T14:06:56.283Z,5.57
2023-05-14T14:09:23.368Z,5.30
2023-05-14T14:11:50.759Z,5.63
2023-05-14T14:14:18.509Z,6.97
2023-05-14T14:16:45.386Z,5.50
2023-05-14T14:19:12.262Z,6.30
2023-05-14T14:21:42.726Z,5.50
2023-05-14T14:24:09.572Z,5.47
2023-05-14T14:26:36.461Z,5.67
2023-05-14T14:29:03.336Z,5.57
2023-05-14T14:31:30.244Z,5.43
2023-05-14T14:33:57.131Z,5.83
2023-05-14T14:36:24.011Z,5.47
2023-05-14T14:38:51.196Z,5.20
2023-05-14T14:41:18.068Z,8.57
2023-05-14T14:43:45.136Z,6.40
2023-05-14T14:46:12.129Z,6.67
2023-05-14T14:48:39.058Z,5.80
2023-05-14T14:51:07.657Z,5.70
2023-05-14T14:53:36.094Z,5.93
2023-05-14T14:56:03.121Z,6.27
2023-05-14T14:58:31.040Z,5.60
2023-05-14T15:00:58.419Z,5.10
2023-05-14T15:03:26.120Z,6.37
2023-05-14T15:05:53.873Z,5.67
2023-05-14T15:08:24.683Z,5.80
2023-05-14T15:10:51.596Z,6.73
2023-05-14T15:13:19.237Z,6.47
2023-05-14T15:15:46.047Z,5.90
2023-05-14T15:18:12.880Z,5.67
2023-05-14T15:20:40.394Z,5.30
2023-05-14T15:23:07.664Z,5.13
2023-05-14T15:25:34.627Z,5.10
2023-05-14T15:28:01.439Z,4.77
2023-05-14T15:30:28.488Z,5.23
2023-05-14T15:32:56.042Z,4.80
2023-05-14T15:35:23.406Z,5.90
2023-05-14T15:37:50.388Z,4.77
2023-05-14T15:40:19.637Z,5.40
2023-05-14T15:42:47.044Z,5.97
2023-05-14T15:45:14.391Z,6.03
2023-05-14T15:47:41.795Z,5.50
2023-05-14T15:50:09.342Z,6.10
2023-05-14T15:52:36.585Z,5.87
2023-05-14T15:55:05.535Z,5.13
2023-05-14T15:57:32.469Z,4.43
2023-05-14T15:59:59.247Z,4.70
2023-05-14T16:02:26.218Z,4.53
2023-05-14T16:04:53.142Z,4.30
2023-05-14T16:07:20.054Z,4.60
2023-05-14T16:09:46.902Z,5.70
2023-05-14T16:12:14.983Z,4.83
2023-05-14T16:14:42.196Z,4.90
2023-05-14T16:17:09.323Z,4.37
2023-05-14T16:19:36.342Z,4.00
2023-05-14T16:22:03.217Z,5.50
2023-05-14T16:24:30.080Z,4.37
2023-05-14T16:26:57.036Z,4.57
2023-05-14T16:29:23.970Z,5.70
2023-05-14T16:31:50.924Z,4.20
2023-05-14T16:34:17.728Z,5.63
2023-05-14T16:36:44.713Z,5.83
2023-05-14T16:39:11.667Z,5.10
2023-05-14T16:41:38.478Z,5.43
2023-05-14T16:44:05.564Z,5.43
2023-05-14T16:46:32.991Z,5.70
2023-05-14T16:48:59.979Z,4.20
2023-05-14T16:51:26.811Z,5.33
2023-05-14T16:53:55.498Z,4.30
2023-05-14T16:56:22.731Z,4.53
2023-05-14T16:58:49.880Z,5.57
2023-05-14T17:01:19.929Z,4.77
2023-05-14T17:03:47.097Z,4.20
2023-05-14T17:06:14.006Z,4.23
2023-05-14T17:08:40.886Z,4.40
2023-05-14T17:11:07.767Z,5.17
2023-05-14T17:13:34.654Z,4.37
2023-05-14T17:16:02.056Z,4.53
2023-05-14T17:18:29.156Z,4.40
2023-05-14T17:20:56.085Z,4.23
2023-05-14T17:23:22.950Z,4.50
2023-05-14T17:25:50.077Z,4.30
2023-05-14T17:28:16.931Z,5.10
2023-05-14T17:30:43.935Z,4.20
2023-05-14T17:33:11.494Z,4.43
2023-05-14T17:35:38.945Z,4.07
2023-05-14T17:38:05.932Z,4.27
2023-05-14T17:40:33.445Z,4.20
2023-05-14T17:43:00.736Z,5.73
2023-05-14T17:45:29.494Z,4.30
2023-05-14T17:47:59.215Z,4.03
2023-05-14T17:50:26.186Z,4.50
2023-05-14T17:52:53.375Z,4.60
2023-05-14T17:55:20.864Z,4.17
2023-05-14T17:57:47.696Z,4.10
2023-05-14T18:00:14.752Z,4.50
2023-05-14T18:02:42.200Z,4.10
2023-05-14T18:05:09.184Z,4.10
2023-05-14T18:07:36.656Z,4.83
2023-05-14T18:10:04.021Z,4.77
2023-05-14T18:12:31.001Z,5.07
2023-05-14T18:14:57.838Z,4.30
2023-05-14T18:17:24.705Z,4.30
2023-05-14T18:19:51.573Z,4.00
2023-05-14T18:22:20.291Z,5.77
2023-05-14T18:24:47.222Z,5.37
2023-05-14T18:27:14.168Z,5.30
2023-05-14T18:29:42.694Z,4.60
2023-05-14T18:32:09.553Z,4.30
2023-05-14T18:34:36.625Z,4.30
2023-05-14T18:37:03.465Z,4.40
2023-05-14T18:39:30.342Z,5.40
2023-05-14T18:41:57.319Z,5.03
2023-05-14T18:44:24.090Z,5.40
2023-05-14T18:46:51.010Z,5.63
2023-05-14T18:49:18.086Z,4.37
2023-05-14T18:51:45.027Z,4.40
2023-05-14T18:54:11.844Z,4.13
2023-05-14T18:56:41.179Z,4.63
2023-05-14T18:59:08.032Z,4.47
2023-05-14T19:01:34.945Z,5.17
2023-05-14T19:04:04.548Z,3.93
2023-05-14T19:06:32.731Z,4.57
2023-05-14T19:08:59.577Z,4.63
2023-05-14T19:11:26.483Z,3.87
2023-05-14T19:13:53.299Z,5.33
2023-05-14T19:16:20.194Z,4.40
2023-05-14T19:18:47.078Z,4.67
2023-05-14T19:21:15.283Z,4.07
2023-05-14T19:23:42.151Z,4.40
2023-05-14T19:26:09.339Z,3.93
2023-05-14T19:28:38.019Z,3.50
2023-05-14T19:31:05.792Z,3.30
2023-05-14T19:33:32.625Z,3.63
2023-05-14T19:35:59.537Z,4.07
2023-05-14T19:38:26.340Z,3.00
2023-05-14T19:40:56.793Z,3.33
2023-05-14T19:43:27.977Z,3.53
2023-05-14T19:45:54.958Z,2.30
2023-05-14T19:48:21.712Z,2.60
2023-05-14T19:50:48.599Z,2.67
2023-05-14T19:53:15.606Z,2.83
2023-05-14T19:55:42.303Z,2.70
2023-05-14T19:58:09.242Z,2.67
2023-05-14T20:00:36.961Z,2.77
2023-05-14T20:03:05.843Z,2.73
2023-05-14T20:05:34.448Z,3.47
2023-05-14T20:08:01.691Z,3.30
2023-05-14T20:10:28.679Z,3.03
2023-05-14T20:12:55.571Z,2.80
2023-05-14T20:15:22.424Z,2.60
2023-05-14T20:17:49.226Z,2.60
2023-05-14T20:20:16.591Z,3.20
2023-05-14T20:22:44.104Z,4.83
2023-05-14T20:25:11.131Z,4.23
2023-05-14T20:27:38.135Z,3.43
2023-05-14T20:30:05.774Z,4.17
2023-05-14T20:32:32.767Z,6.70
2023-05-14T20:35:02.381Z,8.53
2023-05-14T20:37:33.123Z,5.77
2023-05-14T20:40:00.939Z,5.23
2023-05-14T20:42:28.195Z,4.70
2023-05-14T20:44:55.454Z,5.33
2023-05-14T20:47:26.546Z,6.33
2023-05-14T20:49:53.517Z,5.07
2023-05-14T20:52:20.465Z,6.93
2023-05-14T20:54:47.288Z,4.63
2023-05-14T20:57:17.902Z,3.60
2023-05-14T20:59:46.037Z,4.03
2023-05-14T21:02:12.910Z,4.17
2023-05-14T21:04:39.870Z,4.27
2023-05-14T21:07:07.279Z,3.70
2023-05-14T21:09:34.198Z,3.87
2023-05-14T21:12:01.005Z,3.53
2023-05-14T21:14:27.826Z,3.93
2023-05-14T21:16:54.689Z,4.60
2023-05-14T21:19:23.244Z,4.13
2023-05-14T21:21:50.066Z,3.47
2023-05-14T21:24:16.867Z,4.53
2023-05-14T21:26:43.766Z,4.60
2023-05-14T21:29:11.077Z,3.40
2023-05-14T21:31:38.029Z,2.90
2023-05-14T21:34:05.027Z,3.17
2023-05-14T21:36:31.924Z,3.27
2023-05-14T21:38:58.804Z,4.30
2023-05-14T21:41:25.745Z,3.00
2023-05-14T21:43:52.523Z,2.83
2023-05-14T21:46:19.428Z,3.00
2023-05-14T21:48:46.261Z,2.83
2023-05-14T21:51:13.142Z,3.50
2023-05-14T21:53:40.002Z,2.03
2023-05-14T21:56:08.101Z,4.10
2023-05-14T21:58:35.460Z,2.00
2023-05-14T22:01:02.362Z,2.60
2023-05-14T22:03:29.248Z,3.80
2023-05-14T22:05:56.298Z,3.43
2023-05-14T22:08:23.835Z,2.40
2023-05-14T22:10:50.729Z,2.90
2023-05-14T22:13:17.554Z,4.20
2023-05-14T22:15:44.609Z,3.60
2023-05-14T22:18:12.853Z,3.27
2023-05-14T22:20:40.176Z,2.40
2023-05-14T22:23:07.226Z,2.40
2023-05-14T22:25:34.369Z,2.97
2023-05-14T22:28:01.229Z,2.67
2023-05-14T22:30:28.059Z,3.37
2023-05-14T22:32:54.914Z,2.50
2023-05-14T22:35:21.910Z,2.20
2023-05-14T22:37:48.719Z,2.97
2023-05-14T22:40:15.664Z,2.97
2023-05-14T22:42:42.570Z,2.20
2023-05-14T22:45:09.846Z,2.80
2023-05-14T22:47:38.058Z,5.10
2023-05-14T22:50:11.206Z,2.83
2023-05-14T22:52:39.217Z,4.23
2023-05-14T22:55:06.981Z,3.77
2023-05-14T22:57:34.622Z,4.73
2023-05-14T23:00:01.580Z,4.23
2023-05-14T23:02:28.473Z,4.70
2023-05-14T23:04:55.475Z,4.33
2023-05-14T23:07:22.667Z,4.20
2023-05-14T23:09:49.515Z,4.00
2023-05-14T23:12:16.467Z,3.73
2023-05-14T23:14:43.309Z,4.13
2023-05-14T23:17:10.137Z,5.10
2023-05-14T23:19:37.032Z,4.73
2023-05-14T23:22:04.008Z,3.90
2023-05-14T23:24:30.868Z,5.77
2023-05-14T23:26:57.745Z,5.20
2023-05-14T23:29:24.639Z,4.63
2023-05-14T23:31:51.501Z,5.10
2023-05-14T23:34:18.543Z,4.00
2023-05-14T23:36:45.567Z,4.13
2023-05-14T23:39:12.486Z,4.13
2023-05-14T23:41:39.358Z,3.90
2023-05-14T23:44:06.191Z,3.77
2023-05-14T23:46:33.329Z,4.13
2023-05-14T23:49:00.698Z,4.40
2023-05-14T23:51:27.867Z,4.30
2023-05-14T23:53:58.381Z,6.03
2023-05-14T23:56:26.314Z,4.93
2023-05-14T23:58:53.506Z,5.37
